Time;durP1;ratioP1;P1;durP2;ratioP2;P2;SDS_P1;SDS_P2;PMS_P1;PMS_P2;Temp;Humidity;BMP_temperature;BMP_pressure;BME280_temperature;BME280_humidity;BME280_pressure;Samples;Min_cycle;Max_cycle;Signal;HPM_P1;HPM_P2
2023/03/27 00:02:19;;;;;;;1.57;1.47;;;6.10;99.90;;;;;;6246507;23;20160;-85
2023/03/27 00:04:44;;;;;;;1.60;1.50;;;6.10;99.90;;;;;;6246050;23;20403;-85
2023/03/27 00:07:11;;;;;;;1.80;1.63;;;6.10;99.90;;;;;;6241259;23;20195;-85
2023/03/27 00:09:38;;;;;;;2.28;1.40;;;6.10;99.90;;;;;;6244376;23;20129;-85
2023/03/27 00:12:04;;;;;;;3.88;2.20;;;6.20;99.90;;;;;;6248286;23;20164;-85
2023/03/27 00:14:29;;;;;;;1.33;1.10;;;6.20;99.90;;;;;;6244363;23;20488;-85
2023/03/27 00:16:58;;;;;;;1.17;0.80;;;6.20;99.90;;;;;;6248238;23;20159;-85
2023/03/27 00:19:24;;;;;;;1.60;1.13;;;6.10;99.90;;;;;;6245237;23;20159;-85
2023/03/27 00:21:50;;;;;;;1.15;1.05;;;6.10;99.90;;;;;;6245956;23;20626;-85
2023/03/27 00:24:16;;;;;;;1.47;0.57;;;6.10;99.90;;;;;;6239286;23;20149;-85
2023/03/27 00:26:42;;;;;;;0.60;0.50;;;6.00;99.90;;;;;;6241345;23;20156;-85
2023/03/27 00:29:07;;;;;;;0.93;0.80;;;5.90;99.90;;;;;;6252492;23;20816;-86
2023/03/27 00:31:33;;;;;;;0.60;0.40;;;5.90;99.90;;;;;;6245078;23;20172;-85
2023/03/27 00:33:58;;;;;;;1.43;1.00;;;5.90;99.90;;;;;;6241179;23;20682;-85
2023/03/27 00:36:24;;;;;;;1.40;1.07;;;5.80;99.90;;;;;;6242427;23;20149;-84
2023/03/27 00:38:52;;;;;;;1.30;0.70;;;5.90;99.90;;;;;;6239567;23;20240;-85
2023/03/27 00:41:19;;;;;;;0.70;0.70;;;5.90;99.90;;;;;;6244875;23;20244;-85
2023/03/27 00:43:46;;;;;;;0.85;0.80;;;5.80;99.90;;;;;;6241450;23;20159;-84
2023/03/27 00:46:14;;;;;;;1.58;0.85;;;5.90;99.90;;;;;;6242545;23;20497;-85
2023/03/27 00:48:45;;;;;;;0.93;0.70;;;5.90;99.90;;;;;;6243645;23;20204;-85
2023/03/27 00:51:10;;;;;;;1.17;0.95;;;5.80;99.90;;;;;;6241214;23;20553;-85
2023/03/27 00:53:36;;;;;;;0.80;0.60;;;5.80;99.90;;;;;;6243092;23;20152;-85
2023/03/27 00:56:06;;;;;;;0.90;0.90;;;5.80;99.90;;;;;;6242675;23;20179;-85
2023/03/27 00:58:38;;;;;;;1.63;1.08;;;5.70;99.90;;;;;;6246635;23;20409;-85
2023/03/27 01:01:03;;;;;;;1.52;1.33;;;5.70;99.90;;;;;;6242748;23;20184;-85
2023/03/27 01:03:31;;;;;;;3.47;1.00;;;5.70;99.90;;;;;;6240147;23;20824;-85
2023/03/27 01:06:00;;;;;;;2.17;1.30;;;5.70;99.90;;;;;;6242449;23;20785;-84
2023/03/27 01:08:29;;;;;;;2.70;1.10;;;5.70;99.90;;;;;;6233396;23;20172;-85
2023/03/27 01:11:26;;;;;;;1.42;0.90;;;5.70;99.90;;;;;;6242164;23;20175;-85
2023/03/27 01:14:08;;;;;;;3.88;1.17;;;5.60;99.90;;;;;;6225452;23;20239;-85
2023/03/27 01:16:56;;;;;;;1.02;0.80;;;5.60;99.90;;;;;;6239141;23;20160;-85
2023/03/27 01:19:42;;;;;;;2.38;1.38;;;5.60;99.90;;;;;;6239476;23;20164;-85
2023/03/27 01:22:20;;;;;;;1.13;1.02;;;5.50;99.90;;;;;;6238285;23;20210;-85
2023/03/27 01:24:55;;;;;;;1.85;0.98;;;5.40;99.90;;;;;;6240336;23;20139;-85
2023/03/27 01:28:07;;;;;;;1.33;1.20;;;5.30;99.90;;;;;;6237662;23;20144;-86
2023/03/27 01:31:14;;;;;;;0.90;0.90;;;5.30;99.90;;;;;;6237573;23;20172;-85
2023/03/27 01:34:01;;;;;;;2.67;1.40;;;5.30;99.90;;;;;;6237595;23;20175;-85
2023/03/27 01:37:17;;;;;;;0.80;0.70;;;5.20;99.90;;;;;;6240059;23;20190;-84
2023/03/27 01:40:03;;;;;;;1.33;1.17;;;5.30;99.90;;;;;;6216323;23;20163;-84
2023/03/27 01:42:46;;;;;;;1.65;1.30;;;5.30;99.90;;;;;;6243501;23;20140;-84
2023/03/27 01:45:54;;;;;;;1.92;1.58;;;5.20;99.90;;;;;;6241889;23;20132;-84
2023/03/27 01:48:33;;;;;;;1.20;1.10;;;5.20;99.90;;;;;;6245084;22;20133;-84
2023/03/27 01:51:15;;;;;;;1.30;1.20;;;5.00;99.90;;;;;;6244791;23;20168;-84
2023/03/27 01:53:48;;;;;;;1.65;1.38;;;5.00;99.90;;;;;;6243112;23;20638;-84
2023/03/27 01:56:31;;;;;;;1.85;1.35;;;5.00;99.90;;;;;;6244851;23;20129;-84
2023/03/27 01:59:07;;;;;;;4.95;2.10;;;5.00;99.90;;;;;;6244122;23;20143;-84
2023/03/27 02:01:37;;;;;;;8.88;2.50;;;5.00;99.90;;;;;;6240263;23;20191;-84
2023/03/27 02:04:06;;;;;;;5.40;3.28;;;4.90;99.90;;;;;;6241171;23;20161;-84
2023/03/27 02:06:36;;;;;;;10.65;3.75;;;4.80;99.90;;;;;;6243677;23;20587;-84
2023/03/27 02:09:11;;;;;;;10.07;3.88;;;4.80;99.90;;;;;;6241783;23;20144;-84
2023/03/27 02:11:49;;;;;;;14.65;5.13;;;4.80;99.90;;;;;;6243540;23;20174;-84
2023/03/27 02:14:20;;;;;;;6.35;2.55;;;4.70;99.90;;;;;;6244425;23;20129;-84
2023/03/27 02:16:53;;;;;;;4.20;2.42;;;4.60;99.90;;;;;;6243432;23;20141;-84
2023/03/27 02:19:33;;;;;;;11.43;3.45;;;4.60;99.90;;;;;;6243198;23;20145;-84
2023/03/27 02:21:59;;;;;;;10.63;4.63;;;4.50;99.90;;;;;;6244517;23;20334;-83
2023/03/27 02:24:25;;;;;;;5.90;3.53;;;4.50;99.90;;;;;;6241456;23;20319;-84
2023/03/27 02:27:11;;;;;;;14.60;3.87;;;4.50;99.90;;;;;;6240035;23;20380;-84
2023/03/27 02:29:46;;;;;;;10.60;3.25;;;4.30;99.90;;;;;;6243185;23;20148;-84
2023/03/27 02:32:35;;;;;;;6.28;3.05;;;4.30;99.90;;;;;;6238756;23;20501;-84
2023/03/27 02:35:10;;;;;;;14.55;3.75;;;4.30;99.90;;;;;;6239859;23;20186;-84
2023/03/27 02:37:53;;;;;;;8.43;3.72;;;4.20;99.90;;;;;;6241104;23;20125;-84
2023/03/27 02:40:39;;;;;;;8.80;4.55;;;4.20;99.90;;;;;;6239032;23;20279;-84
2023/03/27 02:43:21;;;;;;;9.60;4.82;;;4.10;99.90;;;;;;6235818;23;20175;-85
2023/03/27 02:45:51;;;;;;;7.03;3.47;;;4.10;99.90;;;;;;6235503;23;21093;-85
2023/03/27 02:48:33;;;;;;;27.20;5.05;;;4.20;99.90;;;;;;6238702;23;20265;-85
2023/03/27 02:51:21;;;;;;;16.75;4.72;;;4.10;99.90;;;;;;6237983;23;20259;-84
2023/03/27 02:53:58;;;;;;;9.77;3.10;;;4.10;99.90;;;;;;6246722;23;20141;-84
2023/03/27 02:56:26;;;;;;;6.07;3.55;;;4.10;99.90;;;;;;6242476;23;20193;-85
2023/03/27 02:59:02;;;;;;;16.02;4.57;;;4.10;99.90;;;;;;6243149;23;20175;-85
2023/03/27 03:01:31;;;;;;;9.52;3.03;;;4.10;99.90;;;;;;6240547;23;20219;-84
2023/03/27 03:04:07;;;;;;;8.10;3.85;;;4.00;99.90;;;;;;6243424;23;20160;-85
2023/03/27 03:06:33;;;;;;;10.00;2.33;;;4.00;99.90;;;;;;6239428;23;20183;-84
2023/03/27 03:09:00;;;;;;;9.97;3.77;;;4.00;99.90;;;;;;6240382;23;20872;-85
2023/03/27 03:11:27;;;;;;;4.18;3.10;;;3.90;99.90;;;;;;6234894;23;20475;-84
2023/03/27 03:13:53;;;;;;;8.25;3.75;;;3.90;99.90;;;;;;6234799;23;20212;-84
2023/03/27 03:16:19;;;;;;;8.43;3.58;;;3.90;99.90;;;;;;6237538;23;20152;-84
2023/03/27 03:18:45;;;;;;;16.00;4.80;;;3.90;99.90;;;;;;6242306;23;20286;-84
2023/03/27 03:21:10;;;;;;;9.13;3.70;;;4.00;99.90;;;;;;6239020;23;20184;-84
2023/03/27 03:23:37;;;;;;;11.10;3.40;;;3.90;99.90;;;;;;6236971;23;21408;-84
2023/03/27 03:26:03;;;;;;;8.75;3.58;;;3.90;99.90;;;;;;6237461;23;20482;-84
2023/03/27 03:28:29;;;;;;;5.77;3.10;;;3.90;99.90;;;;;;6248860;23;20226;-85
2023/03/27 03:30:57;;;;;;;8.40;4.60;;;3.80;99.90;;;;;;6245382;23;20406;-84
2023/03/27 03:33:24;;;;;;;6.82;2.85;;;3.70;99.90;;;;;;6243969;23;20176;-85
2023/03/27 03:35:50;;;;;;;13.05;4.53;;;3.60;99.90;;;;;;6240224;23;20152;-85
2023/03/27 03:38:23;;;;;;;12.43;3.10;;;3.60;99.90;;;;;;6240599;23;20228;-84
2023/03/27 03:40:51;;;;;;;10.57;2.80;;;3.50;99.90;;;;;;6242763;23;20176;-84
2023/03/27 03:43:19;;;;;;;8.48;2.88;;;3.50;99.90;;;;;;6240517;23;20157;-84
2023/03/27 03:45:44;;;;;;;10.00;2.25;;;3.50;99.90;;;;;;6240549;23;20159;-85
2023/03/27 03:48:10;;;;;;;6.47;2.60;;;3.60;99.90;;;;;;6238185;23;20149;-85
2023/03/27 03:50:35;;;;;;;5.53;2.80;;;3.50;99.90;;;;;;6238775;23;20301;-85
2023/03/27 03:53:01;;;;;;;15.23;4.23;;;3.40;99.90;;;;;;6242621;23;20170;-85
2023/03/27 03:55:26;;;;;;;5.37;2.50;;;3.40;99.90;;;;;;6240779;23;20212;-84
2023/03/27 03:57:52;;;;;;;4.33;1.43;;;3.20;99.90;;;;;;6239654;23;20167;-85
2023/03/27 04:00:18;;;;;;;5.50;2.00;;;3.20;99.90;;;;;;6238079;23;20586;-84
2023/03/27 04:02:44;;;;;;;13.00;2.50;;;3.20;99.90;;;;;;6241681;23;20152;-84
2023/03/27 04:05:10;;;;;;;5.03;1.58;;;3.20;99.90;;;;;;6251602;23;20133;-84
2023/03/27 04:07:36;;;;;;;17.00;6.03;;;3.10;99.90;;;;;;6242978;23;20148;-84
2023/03/27 04:10:02;;;;;;;7.97;2.00;;;3.10;99.90;;;;;;6241784;23;21012;-85
2023/03/27 04:12:29;;;;;;;7.95;1.77;;;3.10;99.90;;;;;;6240697;23;20379;-84
2023/03/27 04:14:54;;;;;;;14.13;2.05;;;3.00;99.90;;;;;;6236067;23;20659;-84
2023/03/27 04:17:22;;;;;;;6.13;1.70;;;3.00;99.90;;;;;;6236236;23;20209;-85
2023/03/27 04:19:48;;;;;;;12.25;2.55;;;2.90;99.90;;;;;;6238127;23;20387;-84
2023/03/27 04:22:16;;;;;;;4.65;1.80;;;2.90;99.90;;;;;;6239472;23;20194;-84
2023/03/27 04:24:44;;;;;;;13.63;2.00;;;2.90;99.90;;;;;;6240301;23;20148;-84
2023/03/27 04:27:10;;;;;;;12.77;2.50;;;2.80;99.90;;;;;;6235603;23;20290;-84
2023/03/27 04:29:41;;;;;;;6.50;2.78;;;2.80;99.90;;;;;;6238318;23;20532;-84
2023/03/27 04:32:08;;;;;;;4.50;2.50;;;2.80;99.90;;;;;;6236621;23;20160;-84
2023/03/27 04:34:37;;;;;;;2.85;1.40;;;2.70;99.90;;;;;;6235986;23;20164;-84
2023/03/27 04:37:03;;;;;;;9.50;2.08;;;2.70;99.90;;;;;;6237564;23;20161;-84
2023/03/27 04:39:28;;;;;;;5.35;1.27;;;2.60;99.90;;;;;;6237128;23;20144;-84
2023/03/27 04:41:54;;;;;;;4.33;1.77;;;2.50;99.90;;;;;;6236220;23;20184;-84
2023/03/27 04:44:20;;;;;;;8.43;2.70;;;2.50;99.90;;;;;;6241209;23;20159;-84
2023/03/27 04:46:49;;;;;;;3.50;1.30;;;2.40;99.90;;;;;;6248340;23;20236;-84
2023/03/27 04:49:19;;;;;;;5.25;1.50;;;2.30;99.90;;;;;;6241443;23;20152;-84
2023/03/27 04:51:45;;;;;;;7.38;1.80;;;2.30;99.90;;;;;;6238949;23;20260;-84
2023/03/27 04:54:12;;;;;;;6.30;1.80;;;;;;;;;;6239199;23;20377;-83
2023/03/27 04:56:39;;;;;;;5.72;2.58;;;2.30;99.90;;;;;;6233725;23;20140;-84
2023/03/27 04:59:05;;;;;;;23.13;2.25;;;2.30;99.90;;;;;;6241144;23;20159;-83
2023/03/27 05:01:30;;;;;;;6.30;1.67;;;2.30;99.90;;;;;;6240075;23;20184;-84
2023/03/27 05:03:56;;;;;;;3.83;1.67;;;2.20;99.90;;;;;;6239726;23;20140;-85
2023/03/27 05:06:22;;;;;;;2.00;1.50;;;2.20;99.90;;;;;;6240881;23;20145;-83
2023/03/27 05:08:48;;;;;;;5.85;1.08;;;2.20;99.90;;;;;;6243171;23;20153;-83
2023/03/27 05:11:13;;;;;;;6.90;1.80;;;2.20;99.90;;;;;;6242791;23;20297;-83
2023/03/27 05:13:39;;;;;;;6.80;1.90;;;2.20;99.90;;;;;;6242929;23;20601;-84
2023/03/27 05:16:06;;;;;;;5.63;1.80;;;2.20;99.90;;;;;;6247621;23;20158;-84
2023/03/27 05:18:31;;;;;;;12.50;2.38;;;2.10;99.90;;;;;;6246025;23;20401;-83
2023/03/27 05:20:58;;;;;;;3.47;1.50;;;2.10;99.90;;;;;;6242929;23;20188;-84
2023/03/27 05:23:27;;;;;;;7.47;1.80;;;2.10;99.90;;;;;;6242274;23;20159;-84
2023/03/27 05:25:55;;;;;;;4.63;2.40;;;2.10;99.90;;;;;;6235952;23;20228;-83
2023/03/27 05:28:21;;;;;;;9.77;2.22;;;2.10;99.90;;;;;;6228340;23;20232;-84
2023/03/27 05:30:48;;;;;;;6.70;2.05;;;2.10;99.90;;;;;;6238681;23;20165;-84
2023/03/27 05:33:15;;;;;;;14.65;2.47;;;2.10;99.90;;;;;;6237641;23;20172;-84
2023/03/27 05:35:41;;;;;;;2.50;1.58;;;2.10;99.90;;;;;;6237432;23;20160;-83
2023/03/27 05:38:07;;;;;;;10.57;1.55;;;2.20;99.90;;;;;;6235787;23;20153;-83
2023/03/27 05:40:33;;;;;;;3.70;1.10;;;2.10;99.90;;;;;;6229505;23;20191;-84
2023/03/27 05:42:59;;;;;;;7.47;2.13;;;2.10;99.90;;;;;;6231997;23;20370;-83
2023/03/27 05:45:25;;;;;;;4.17;0.87;;;2.10;99.90;;;;;;6231114;23;20152;-83
2023/03/27 05:47:56;;;;;;;3.22;2.30;;;2.00;99.90;;;;;;6234837;23;20454;-83
2023/03/27 05:50:25;;;;;;;5.38;1.40;;;2.00;99.90;;;;;;6230455;23;20328;-83
2023/03/27 05:53:05;;;;;;;7.75;1.08;;;2.00;99.90;;;;;;6232730;23;20149;-82
2023/03/27 05:55:31;;;;;;;6.90;2.38;;;2.00;99.90;;;;;;6227006;23;20179;-83
2023/03/27 05:57:56;;;;;;;2.40;0.80;;;2.00;99.90;;;;;;6228199;23;20280;-83
2023/03/27 06:00:26;;;;;;;5.40;1.47;;;2.00;99.90;;;;;;6231498;23;20496;-83
2023/03/27 06:02:56;;;;;;;4.28;1.42;;;2.00;99.90;;;;;;6234403;23;20139;-83
2023/03/27 06:05:22;;;;;;;10.15;0.93;;;2.00;99.90;;;;;;6231729;23;20167;-83
2023/03/27 06:07:48;;;;;;;2.22;1.10;;;2.10;99.90;;;;;;6235348;23;20165;-83
2023/03/27 06:10:16;;;;;;;6.53;1.33;;;2.10;99.90;;;;;;6237907;23;20172;-84
2023/03/27 06:12:43;;;;;;;10.45;1.23;;;2.10;99.90;;;;;;6233161;23;20191;-83
2023/03/27 06:15:10;;;;;;;10.13;1.85;;;2.20;99.90;;;;;;6248631;22;20493;-83
2023/03/27 06:17:38;;;;;;;4.28;1.13;;;2.20;99.90;;;;;;6231789;23;20179;-83
2023/03/27 06:20:10;;;;;;;8.90;1.45;;;2.10;99.90;;;;;;6231115;23;20148;-84
2023/03/27 06:22:44;;;;;;;6.75;1.50;;;2.10;99.90;;;;;;6233170;23;20137;-84
2023/03/27 06:25:10;;;;;;;5.75;4.35;;;2.40;99.90;;;;;;6235477;23;20194;-83
2023/03/27 06:27:36;;;;;;;7.00;1.50;;;3.60;99.90;;;;;;6237165;23;20251;-83
2023/03/27 06:30:03;;;;;;;2.13;1.35;;;4.60;99.90;;;;;;6243661;23;20501;-83
2023/03/27 06:32:29;;;;;;;8.18;2.47;;;5.30;99.90;;;;;;6242486;23;20183;-83
2023/03/27 06:34:54;;;;;;;13.53;1.23;;;5.50;99.90;;;;;;6242600;23;20137;-83
2023/03/27 06:37:20;;;;;;;4.73;1.50;;;5.00;99.90;;;;;;6239968;23;20137;-82
2023/03/27 06:39:49;;;;;;;17.80;2.70;;;4.50;99.90;;;;;;6241536;23;20159;-83
2023/03/27 06:42:15;;;;;;;3.60;1.35;;;4.30;99.90;;;;;;6243413;23;20171;-83
2023/03/27 06:44:40;;;;;;;4.93;1.87;;;4.50;99.90;;;;;;6235558;23;20152;-83
2023/03/27 06:47:06;;;;;;;8.83;2.33;;;4.40;99.90;;;;;;6236516;23;20187;-83
2023/03/27 06:49:31;;;;;;;5.87;2.10;;;4.00;99.90;;;;;;6237485;23;20141;-83
2023/03/27 06:51:57;;;;;;;5.17;1.57;;;3.60;99.90;;;;;;6239269;23;20168;-83
2023/03/27 06:54:23;;;;;;;2.37;1.57;;;3.20;99.90;;;;;;6240028;23;20156;-85
2023/03/27 06:56:48;;;;;;;2.43;0.83;;;3.70;99.90;;;;;;6242838;23;20709;-83
2023/03/27 06:59:15;;;;;;;3.10;1.10;;;4.00;99.90;;;;;;6250252;23;20168;-83
2023/03/27 07:01:42;;;;;;;4.05;1.80;;;3.80;99.90;;;;;;6250771;23;20184;-83
2023/03/27 07:04:08;;;;;;;6.05;1.75;;;4.80;99.90;;;;;;6250111;23;20153;-83
2023/03/27 07:06:33;;;;;;;19.13;1.97;;;5.30;99.90;;;;;;6251285;23;20159;-84
2023/03/27 07:09:02;;;;;;;8.53;1.33;;;4.70;99.90;;;;;;6249167;23;20152;-81
2023/03/27 07:11:27;;;;;;;3.63;1.50;;;4.50;99.90;;;;;;6248707;23;20176;-82
2023/03/27 07:13:53;;;;;;;4.97;1.43;;;4.40;99.90;;;;;;6247022;23;20187;-83
2023/03/27 07:16:19;;;;;;;8.97;1.60;;;4.40;99.90;;;;;;6247972;23;20176;-83
2023/03/27 07:18:45;;;;;;;2.60;1.13;;;4.10;99.90;;;;;;6248955;23;20848;-84
2023/03/27 07:21:11;;;;;;;2.87;1.03;;;4.20;99.90;;;;;;6249131;23;20181;-83
2023/03/27 07:23:37;;;;;;;4.85;1.30;;;4.30;99.90;;;;;;6253358;23;20129;-83
2023/03/27 07:26:03;;;;;;;1.23;0.73;;;4.20;99.90;;;;;;6253825;23;20160;-84
2023/03/27 07:28:28;;;;;;;5.10;1.50;;;4.10;99.90;;;;;;6255169;23;20153;-83
2023/03/27 07:30:54;;;;;;;7.87;2.80;;;4.20;99.90;;;;;;6256768;23;20242;-84
2023/03/27 07:33:20;;;;;;;3.17;1.35;;;4.50;99.90;;;;;;6250167;23;20177;-83
2023/03/27 07:35:47;;;;;;;5.37;1.60;;;5.20;99.90;;;;;;6243026;23;20156;-84
2023/03/27 07:38:13;;;;;;;9.07;1.35;;;5.80;99.90;;;;;;6247198;23;20677;-83
2023/03/27 07:40:38;;;;;;;9.10;1.60;;;5.40;99.90;;;;;;6246343;23;20192;-83
2023/03/27 07:43:06;;;;;;;5.13;1.37;;;5.00;99.90;;;;;;6256896;22;20391;-84
2023/03/27 07:45:34;;;;;;;8.55;1.65;;;5.20;99.90;;;;;;6247304;23;20157;-84
2023/03/27 07:48:07;;;;;;;4.40;1.95;;;6.30;99.90;;;;;;6247451;23;20148;-84
2023/03/27 07:50:33;;;;;;;4.20;2.00;;;6.70;99.90;;;;;;6250904;23;20580;-83
2023/03/27 07:52:59;;;;;;;12.43;1.80;;;5.80;99.90;;;;;;6238586;23;20191;-83
2023/03/27 07:55:28;;;;;;;3.70;1.37;;;5.60;99.90;;;;;;6239617;23;20152;-83
2023/03/27 07:57:54;;;;;;;5.07;1.60;;;5.60;99.90;;;;;;6237273;23;20152;-83
2023/03/27 08:00:21;;;;;;;9.67;1.77;;;5.90;99.90;;;;;;6242222;23;20188;-84
2023/03/27 08:02:49;;;;;;;5.93;1.45;;;7.10;99.90;;;;;;6237801;23;20387;-84
2023/03/27 08:05:15;;;;;;;3.95;1.48;;;8.00;99.90;;;;;;6235123;23;20163;-84
2023/03/27 08:07:44;;;;;;;5.13;1.50;;;8.20;99.90;;;;;;6236397;23;20197;-84
2023/03/27 08:10:10;;;;;;;3.45;0.98;;;8.00;99.90;;;;;;6238895;23;20222;-83
2023/03/27 08:12:36;;;;;;;6.38;1.48;;;8.00;99.90;;;;;;6237879;23;20821;-84
2023/03/27 08:15:01;;;;;;;2.70;0.90;;;8.70;99.90;;;;;;6236426;23;20186;-84
2023/03/27 08:17:28;;;;;;;4.60;1.33;;;8.90;99.90;;;;;;6226790;23;20140;-84
2023/03/27 08:19:54;;;;;;;6.47;1.40;;;9.40;99.90;;;;;;6237759;23;20472;-84
2023/03/27 08:22:21;;;;;;;8.38;1.20;;;9.80;99.90;;;;;;6235415;23;20163;-83
2023/03/27 08:24:48;;;;;;;4.28;1.48;;;9.50;99.90;;;;;;6235994;23;20152;-84
2023/03/27 08:27:14;;;;;;;4.55;1.13;;;10.20;99.90;;;;;;6236662;23;20214;-84
2023/03/27 08:29:41;;;;;;;1.42;1.33;;;10.50;99.40;;;;;;6235375;22;20209;-83
2023/03/27 08:32:06;;;;;;;7.20;2.20;;;10.30;99.60;;;;;;6234746;23;20180;-84
2023/03/27 08:34:32;;;;;;;3.13;1.23;;;10.50;99.90;;;;;;6234904;23;20676;-83
2023/03/27 08:36:58;;;;;;;2.33;1.43;;;10.00;97.80;;;;;;6233431;23;21262;-84
2023/03/27 08:39:23;;;;;;;10.40;1.40;;;9.00;98.90;;;;;;6236913;23;20156;-84
2023/03/27 08:41:54;;;;;;;7.10;1.67;;;8.30;99.90;;;;;;6235025;23;20184;-84
2023/03/27 08:44:22;;;;;;;9.25;2.17;;;7.60;99.90;;;;;;6235512;23;20180;-84
2023/03/27 08:46:56;;;;;;;16.00;2.15;;;7.70;99.90;;;;;;6233510;23;20164;-84
2023/03/27 08:49:26;;;;;;;10.85;1.90;;;7.90;99.90;;;;;;6234078;23;20148;-85
2023/03/27 08:52:02;;;;;;;8.45;1.20;;;6.70;99.90;;;;;;6234940;23;20259;-84
2023/03/27 08:54:31;;;;;;;3.42;1.27;;;6.20;99.90;;;;;;6246009;23;20148;-85
2023/03/27 08:56:57;;;;;;;3.45;1.60;;;6.50;99.90;;;;;;6239435;23;20220;-84
2023/03/27 08:59:28;;;;;;;5.72;2.00;;;7.70;99.90;;;;;;6238258;23;20163;-84
2023/03/27 09:02:34;;;;;;;2.22;1.38;;;8.80;99.90;;;;;;6239727;23;20714;-84
2023/03/27 09:05:24;;;;;;;9.68;1.45;;;9.60;99.90;;;;;;6238301;23;20217;-84
2023/03/27 09:08:04;;;;;;;11.18;1.00;;;9.70;99.90;;;;;;6235220;23;20147;-84
2023/03/27 09:10:34;;;;;;;4.43;1.40;;;8.20;99.90;;;;;;6241868;23;20176;-83
2023/03/27 09:13:09;;;;;;;5.45;1.63;;;8.40;99.90;;;;;;6244995;23;20140;-83
2023/03/27 09:15:40;;;;;;;8.68;2.10;;;7.90;99.90;;;;;;6238201;23;20721;-84
2023/03/27 09:18:29;;;;;;;5.60;1.25;;;8.40;99.50;;;;;;6237157;23;20144;-83
2023/03/27 09:21:18;;;;;;;4.43;1.77;;;7.30;99.90;;;;;;6238247;23;20267;-85
2023/03/27 09:23:45;;;;;;;2.55;1.00;;;7.40;99.90;;;;;;6237897;23;20636;-84
2023/03/27 09:26:16;;;;;;;2.30;1.40;;;7.20;99.90;;;;;;6242445;23;20129;-84
2023/03/27 09:28:49;;;;;;;5.28;1.15;;;6.50;99.90;;;;;;6246595;23;20171;-85
2023/03/27 09:31:29;;;;;;;6.30;1.40;;;6.20;99.90;;;;;;6245228;23;20210;-83
2023/03/27 09:33:58;;;;;;;6.35;1.27;;;7.20;99.90;;;;;;6236247;23;20163;-84
2023/03/27 09:36:24;;;;;;;4.97;1.13;;;7.70;99.90;;;;;;6238042;23;20637;-83
2023/03/27 09:38:52;;;;;;;3.77;1.57;;;7.70;99.90;;;;;;6233038;23;20156;-83
2023/03/27 09:41:21;;;;;;;5.95;1.50;;;7.10;99.90;;;;;;6235910;23;20195;-84
2023/03/27 09:44:09;;;;;;;4.28;1.52;;;7.30;99.90;;;;;;6236553;23;20145;-83
2023/03/27 09:46:39;;;;;;;10.75;2.10;;;7.10;99.90;;;;;;6235824;23;20140;-83
2023/03/27 09:49:12;;;;;;;8.57;1.88;;;7.50;99.90;;;;;;6236171;23;20136;-83
2023/03/27 09:51:55;;;;;;;5.40;1.60;;;8.10;99.90;;;;;;6234489;23;20886;-83
2023/03/27 09:54:24;;;;;;;2.90;1.30;;;8.50;99.90;;;;;;6234268;23;20145;-83
2023/03/27 09:57:02;;;;;;;4.45;1.30;;;9.00;99.90;;;;;;6236579;23;20161;-83
2023/03/27 09:59:53;;;;;;;7.10;1.60;;;8.90;98.00;;;;;;6235339;23;20983;-83
2023/03/27 10:02:26;;;;;;;5.93;2.05;;;9.40;94.50;;;;;;6224160;23;20280;-83
2023/03/27 10:05:01;;;;;;;6.53;1.60;;;8.60;95.20;;;;;;6234492;23;20165;-83
2023/03/27 10:07:27;;;;;;;2.33;1.08;;;8.70;96.70;;;;;;6246013;23;20172;-82
2023/03/27 10:10:16;;;;;;;5.77;1.13;;;7.80;97.50;;;;;;6237731;23;20157;-83
2023/03/27 10:12:45;;;;;;;4.93;1.45;;;6.60;99.80;;;;;;6236317;23;20152;-82
2023/03/27 10:15:37;;;;;;;12.82;2.13;;;7.40;99.90;;;;;;6236106;23;20179;-83
2023/03/27 10:18:07;;;;;;;6.18;1.38;;;8.10;99.90;;;;;;6242821;23;20563;-83
2023/03/27 10:20:33;;;;;;;8.52;1.25;;;7.60;99.90;;;;;;6239200;23;20180;-84
2023/03/27 10:23:08;;;;;;;2.28;1.20;;;7.80;99.90;;;;;;6233641;23;20300;-83
2023/03/27 10:25:41;;;;;;;5.65;1.50;;;8.20;99.90;;;;;;6242661;22;20160;-84
2023/03/27 10:28:23;;;;;;;1.88;0.90;;;7.60;99.60;;;;;;6242052;23;20140;-84
2023/03/27 10:31:24;;;;;;;7.20;1.70;;;6.70;99.50;;;;;;6240724;23;20192;-84
2023/03/27 10:33:49;;;;;;;2.38;1.50;;;6.80;99.90;;;;;;6242874;23;20169;-83
2023/03/27 10:36:17;;;;;;;3.87;1.20;;;7.30;99.90;;;;;;6239479;23;20172;-83
2023/03/27 10:38:49;;;;;;;6.38;1.40;;;7.60;99.40;;;;;;6240225;23;20144;-84
2023/03/27 10:41:16;;;;;;;6.22;2.17;;;7.70;99.90;;;;;;6239000;23;20182;-83
2023/03/27 10:43:47;;;;;;;7.25;1.55;;;6.90;99.90;;;;;;6240759;23;20151;-83
2023/03/27 10:46:25;;;;;;;5.93;2.03;;;6.20;99.90;;;;;;6243713;23;20482;-83
2023/03/27 10:49:09;;;;;;;5.22;1.30;;;6.20;99.90;;;;;;6239563;23;20602;-83
2023/03/27 10:52:02;;;;;;;2.60;1.60;;;6.80;99.90;;;;;;6234937;23;20529;-84
2023/03/27 10:54:40;;;;;;;1.73;0.90;;;6.80;99.50;;;;;;6241070;23;20168;-84
2023/03/27 10:57:33;;;;;;;8.00;1.23;;;6.90;99.60;;;;;;6241174;23;20508;-83
2023/03/27 11:00:17;;;;;;;1.48;0.80;;;7.00;99.80;;;;;;6241876;23;20202;-84
2023/03/27 11:03:09;;;;;;;6.95;1.15;;;7.10;98.60;;;;;;6251249;23;20145;-82
2023/03/27 11:05:42;;;;;;;4.00;1.30;;;7.20;99.90;;;;;;6239579;23;20149;-84
2023/03/27 11:08:14;;;;;;;3.88;1.35;;;7.30;99.90;;;;;;6237044;23;20674;-85
2023/03/27 11:10:45;;;;;;;4.30;1.48;;;7.60;99.90;;;;;;6237769;23;20186;-85
2023/03/27 11:13:21;;;;;;;0.88;0.70;;;7.70;99.90;;;;;;6240186;23;20156;-84
2023/03/27 11:15:58;;;;;;;5.28;1.10;;;7.70;98.30;;;;;;6242335;23;20235;-84
2023/03/27 11:18:36;;;;;;;5.97;1.20;;;8.40;99.90;;;;;;6248147;23;20163;-84
2023/03/27 11:21:14;;;;;;;7.57;1.35;;;8.30;99.40;;;;;;6246052;22;20223;-85
2023/03/27 11:23:51;;;;;;;5.90;1.35;;;8.20;97.30;;;;;;6244190;23;20129;-85
2023/03/27 11:26:18;;;;;;;3.08;0.90;;;8.00;97.00;;;;;;6240030;23;20463;-85
2023/03/27 11:29:12;;;;;;;4.65;1.40;;;7.80;95.70;;;;;;6243593;23;20143;-84
2023/03/27 11:31:45;;;;;;;2.30;0.77;;;7.90;98.30;;;;;;6239072;23;20179;-84
2023/03/27 11:34:32;;;;;;;6.85;1.25;;;7.40;98.20;;;;;;6247382;23;21001;-84
2023/03/27 11:37:21;;;;;;;4.97;1.40;;;7.00;98.00;;;;;;6249050;23;20247;-85
2023/03/27 11:40:00;;;;;;;5.65;1.13;;;7.70;99.30;;;;;;6251246;23;20161;-85
2023/03/27 11:42:27;;;;;;;6.57;1.60;;;8.10;97.00;;;;;;6243677;23;20143;-84
2023/03/27 11:44:55;;;;;;;7.97;1.67;;;7.90;94.90;;;;;;6239400;23;20145;-84
2023/03/27 11:47:39;;;;;;;3.30;1.33;;;7.70;97.60;;;;;;6241432;23;20224;-84
2023/03/27 11:50:29;;;;;;;18.77;2.35;;;8.00;98.50;;;;;;6239171;23;20195;-84
2023/03/27 11:53:26;;;;;;;3.00;1.33;;;8.50;99.80;;;;;;6238855;23;20137;-84
2023/03/27 11:55:57;;;;;;;3.63;1.10;;;7.70;97.10;;;;;;6239287;23;20133;-84
2023/03/27 11:58:39;;;;;;;5.97;1.55;;;7.20;98.30;;;;;;6236336;23;20629;-84
2023/03/27 12:01:20;;;;;;;3.05;1.42;;;7.50;99.40;;;;;;6239573;23;20267;-84
2023/03/27 12:04:21;;;;;;;5.88;1.30;;;7.60;98.30;;;;;;6238626;23;20151;-84
2023/03/27 12:07:00;;;;;;;4.82;1.10;;;8.00;96.50;;;;;;6166082;22;20152;-83
2023/03/27 12:09:58;;;;;;;2.33;0.95;;;8.40;97.50;;;;;;6239247;23;20575;-84
2023/03/27 12:12:39;;;;;;;3.45;0.60;;;8.20;96.60;;;;;;6237181;23;20145;-83
2023/03/27 12:15:42;;;;;;;1.60;0.55;;;8.50;96.80;;;;;;6239100;23;20559;-84
2023/03/27 12:18:36;;;;;;;6.78;1.10;;;8.80;97.00;;;;;;6236795;23;20155;-84
2023/03/27 12:21:36;;;;;;;6.97;1.50;;;9.00;95.80;;;;;;6241505;23;20183;-85
2023/03/27 12:24:26;;;;;;;6.00;1.38;;;9.10;97.20;;;;;;6243531;23;20657;-84
2023/03/27 12:27:23;;;;;;;0.82;0.70;;;8.60;97.00;;;;;;6238303;23;20153;-84
2023/03/27 12:30:10;;;;;;;2.35;0.98;;;7.70;95.00;;;;;;6243057;23;20140;-84
2023/03/27 12:33:07;;;;;;;4.30;1.30;;;7.60;95.20;;;;;;6247735;22;20202;-84
2023/03/27 12:35:40;;;;;;;3.17;1.17;;;7.30;98.40;;;;;;6246919;23;20610;-84
2023/03/27 12:38:21;;;;;;;12.27;3.63;;;7.10;99.30;;;;;;6238708;23;20434;-84
2023/03/27 12:40:58;;;;;;;1.40;1.30;;;6.50;99.90;;;;;;6239227;23;20176;-84
2023/03/27 12:43:30;;;;;;;7.78;1.20;;;6.20;99.90;;;;;;6239055;23;20133;-85
2023/03/27 12:46:13;;;;;;;5.35;2.65;;;6.10;99.90;;;;;;6233860;23;20643;-84
2023/03/27 12:49:01;;;;;;;1.90;0.90;;;6.00;99.90;;;;;;6234522;23;20508;-84
2023/03/27 12:51:50;;;;;;;1.95;1.15;;;5.70;99.90;;;;;;6239844;23;20229;-85
2023/03/27 12:54:22;;;;;;;7.95;1.30;;;5.40;99.90;;;;;;6247121;23;20210;-84
2023/03/27 12:57:08;;;;;;;6.53;1.90;;;4.60;99.90;;;;;;6233270;23;20153;-84
2023/03/27 12:59:57;;;;;;;6.53;1.38;;;4.20;99.90;;;;;;6232092;23;20162;-84
2023/03/27 13:03:05;;;;;;;2.95;1.45;;;4.20;99.90;;;;;;6234949;22;20172;-84
2023/03/27 13:05:42;;;;;;;4.38;1.55;;;4.10;99.90;;;;;;6230744;23;20153;-84
2023/03/27 13:08:33;;;;;;;4.28;2.30;;;4.40;99.90;;;;;;6227338;23;20658;-84
2023/03/27 13:10:58;;;;;;;6.78;2.20;;;4.40;99.90;;;;;;6233930;23;20184;-84
2023/03/27 13:13:48;;;;;;;6.10;3.10;;;4.20;99.90;;;;;;6231705;23;20151;-83
2023/03/27 13:16:20;;;;;;;6.15;2.63;;;4.20;99.90;;;;;;6233132;23;20737;-84
2023/03/27 13:19:04;;;;;;;5.68;2.17;;;4.20;99.90;;;;;;6231920;23;20531;-84
2023/03/27 13:22:04;;;;;;;2.95;1.55;;;4.20;99.90;;;;;;6229033;23;20184;-83
2023/03/27 13:24:55;;;;;;;2.83;1.67;;;4.10;99.90;;;;;;6229006;23;20129;-84
2023/03/27 13:27:33;;;;;;;4.43;1.20;;;4.10;99.90;;;;;;6228696;23;20810;-83